Terminal Aerodrome Forecast
Issued by NWS

Home | Current Version | Previous Version | Text Only | Print | Product List | Glossary On
Versions: 1 2 3 4 5 6 7 8 9 10 11 12 13 14 15 16 17 18 19
000
FTAK31 PAJN 291700
TAFAKT
TAF
PAKT 291728Z 2918/3018 15010KT P6SM -SHRA SCT015 BKN035
      TEMPO 2918/2921 14014G23KT 4SM SHRA BR OVC025
     FM300300 15006KT P6SM VCSH BKN050
      AMD LTD TO CLD VIS AND WIND 3006/3015=

USA.gov is the U.S. government's official web portal to all federal, state and local government web resources and services.